createdAt,value
2023-08-07T00:00:30.403Z,19.87
2023-08-07T00:02:32.111Z,19.87
2023-08-07T00:04:33.800Z,19.87
2023-08-07T00:06:35.460Z,19.87
2023-08-07T00:08:39.167Z,19.86
2023-08-07T00:10:41.142Z,19.86
2023-08-07T00:12:43.990Z,19.86
2023-08-07T00:14:48.517Z,19.85
2023-08-07T00:16:50.126Z,19.86
2023-08-07T00:18:53.817Z,19.86
2023-08-07T00:20:55.441Z,19.86
2023-08-07T00:22:57.156Z,19.86
2023-08-07T00:24:58.816Z,19.85
2023-08-07T00:27:00.646Z,19.86
2023-08-07T00:29:02.348Z,19.86
2023-08-07T00:31:03.979Z,19.86
2023-08-07T00:33:05.626Z,19.85
2023-08-07T00:35:09.290Z,19.85
2023-08-07T00:37:11.446Z,19.86
2023-08-07T00:39:13.033Z,19.84
2023-08-07T00:41:14.657Z,19.84
2023-08-07T00:43:16.227Z,19.85
2023-08-07T00:45:18.807Z,19.85
2023-08-07T00:47:20.614Z,19.81
2023-08-07T00:49:22.320Z,19.80
2023-08-07T00:51:24.373Z,19.84
2023-08-07T00:53:26.603Z,19.83
2023-08-07T00:55:28.251Z,19.82
2023-08-07T00:57:30.670Z,19.81
2023-08-07T00:59:32.312Z,19.82
2023-08-07T01:01:34.169Z,19.82
2023-08-07T01:03:35.814Z,19.81
2023-08-07T01:05:37.481Z,19.81
2023-08-07T01:07:39.145Z,19.81
2023-08-07T01:09:40.837Z,19.80
2023-08-07T01:11:49.651Z,19.81
2023-08-07T01:14:03.504Z,19.81
2023-08-07T01:16:11.815Z,19.80
2023-08-07T01:18:14.780Z,19.79
2023-08-07T01:20:16.377Z,19.79
2023-08-07T01:22:18.944Z,19.78
2023-08-07T01:24:20.525Z,19.78
2023-08-07T01:26:22.251Z,19.75
2023-08-07T01:28:29.450Z,19.74
2023-08-07T01:30:36.572Z,19.78
2023-08-07T01:32:59.967Z,19.78
2023-08-07T01:35:03.440Z,19.78
2023-08-07T01:37:05.903Z,19.77
2023-08-07T01:39:10.455Z,19.77
2023-08-07T01:41:12.185Z,19.76
2023-08-07T01:43:14.007Z,19.70
2023-08-07T01:45:16.048Z,19.76
2023-08-07T01:47:17.633Z,19.75
2023-08-07T01:49:19.205Z,19.76
2023-08-07T01:51:20.866Z,19.75
2023-08-07T01:53:22.472Z,19.75
2023-08-07T01:55:24.214Z,19.74
2023-08-07T01:57:26.540Z,19.74
2023-08-07T01:59:28.146Z,19.73
2023-08-07T02:01:29.913Z,19.75
2023-08-07T02:03:31.926Z,19.74
2023-08-07T02:05:33.778Z,19.73
2023-08-07T02:07:35.437Z,19.74
2023-08-07T02:09:37.002Z,19.71
2023-08-07T02:11:38.637Z,19.72
2023-08-07T02:13:40.728Z,19.72
2023-08-07T02:15:42.352Z,19.72
2023-08-07T02:17:44.031Z,19.72
2023-08-07T02:19:45.610Z,19.71
2023-08-07T02:21:47.205Z,19.69
2023-08-07T02:23:49.049Z,19.70
2023-08-07T02:25:51.183Z,19.70
2023-08-07T02:27:52.871Z,19.70
2023-08-07T02:29:55.126Z,19.69
2023-08-07T02:31:56.762Z,19.70
2023-08-07T02:33:58.386Z,19.68
2023-08-07T02:36:00.011Z,19.69
2023-08-07T02:38:01.585Z,19.65
2023-08-07T02:40:03.549Z,19.67
2023-08-07T02:42:05.342Z,19.68
2023-08-07T02:44:07.096Z,19.68
2023-08-07T02:46:08.842Z,19.68
2023-08-07T02:48:10.597Z,19.67
2023-08-07T02:50:12.234Z,19.67
2023-08-07T02:52:13.886Z,19.66
2023-08-07T02:54:15.509Z,19.63
2023-08-07T02:56:17.251Z,19.65
2023-08-07T02:58:18.926Z,19.66
2023-08-07T03:00:22.309Z,19.65
2023-08-07T03:02:25.706Z,19.65
2023-08-07T03:04:27.507Z,19.66
2023-08-07T03:06:29.419Z,19.66
2023-08-07T03:08:31.049Z,19.65
2023-08-07T03:10:32.602Z,19.64
2023-08-07T03:12:34.259Z,19.62
2023-08-07T03:14:35.980Z,19.64
2023-08-07T03:16:37.670Z,19.63
2023-08-07T03:18:39.451Z,19.54
2023-08-07T03:20:41.097Z,19.63
2023-08-07T03:22:42.736Z,19.63
2023-08-07T03:24:48.976Z,19.63
2023-08-07T03:26:50.661Z,19.63
2023-08-07T03:28:52.250Z,19.62
2023-08-07T03:30:53.888Z,19.62
2023-08-07T03:32:55.474Z,19.62
2023-08-07T03:34:57.101Z,19.61
2023-08-07T03:37:00.557Z,19.58
2023-08-07T03:39:02.179Z,19.61
2023-08-07T03:41:04.250Z,19.60
2023-08-07T03:43:05.799Z,19.59
2023-08-07T03:45:08.045Z,19.59
2023-08-07T03:47:09.754Z,19.57
2023-08-07T03:49:11.313Z,19.59
2023-08-07T03:51:12.954Z,19.58
2023-08-07T03:53:14.538Z,19.58
2023-08-07T03:55:16.161Z,19.55
2023-08-07T03:57:17.732Z,19.57
2023-08-07T03:59:19.608Z,19.55
2023-08-07T04:01:21.548Z,19.57
2023-08-07T04:03:23.431Z,19.57
2023-08-07T04:05:25.296Z,19.54
2023-08-07T04:07:26.940Z,19.54
2023-08-07T04:09:28.655Z,19.56
2023-08-07T04:11:30.539Z,19.55
2023-08-07T04:13:32.534Z,19.56
2023-08-07T04:15:34.191Z,19.55
2023-08-07T04:17:35.897Z,19.55
2023-08-07T04:19:37.521Z,19.55
2023-08-07T04:21:39.181Z,19.53
2023-08-07T04:23:43.284Z,19.53
2023-08-07T04:25:46.287Z,19.52
2023-08-07T04:27:47.898Z,19.53
2023-08-07T04:29:49.529Z,19.50
2023-08-07T04:31:51.130Z,19.53
2023-08-07T04:33:52.681Z,19.52
2023-08-07T04:35:54.277Z,19.52
2023-08-07T04:37:55.873Z,19.52
2023-08-07T04:39:58.029Z,19.52
2023-08-07T04:41:59.708Z,19.51
2023-08-07T04:44:01.402Z,19.52
2023-08-07T04:48:09.649Z,19.48
2023-08-07T04:50:11.394Z,19.50
2023-08-07T04:52:25.525Z,19.49
2023-08-07T04:54:28.123Z,19.52
2023-08-07T04:56:29.694Z,19.50
2023-08-07T04:58:31.304Z,19.49
2023-08-07T05:00:33.063Z,19.49
2023-08-07T05:02:35.012Z,19.50
2023-08-07T05:04:37.041Z,19.50
2023-08-07T05:06:38.722Z,19.50
2023-08-07T05:08:40.353Z,19.51
2023-08-07T05:10:42.100Z,19.49
2023-08-07T05:12:43.780Z,19.49
2023-08-07T05:14:45.388Z,19.49
2023-08-07T05:16:47.522Z,19.49
2023-08-07T05:18:50.990Z,19.48
2023-08-07T05:20:52.853Z,19.48
2023-08-07T05:22:54.592Z,19.49
2023-08-07T05:24:56.652Z,19.49
2023-08-07T05:26:58.277Z,19.49
2023-08-07T05:28:59.973Z,19.47
2023-08-07T05:31:01.753Z,19.48
2023-08-07T05:33:03.576Z,19.48
2023-08-07T05:35:08.915Z,19.47
2023-08-07T05:37:10.564Z,19.45
2023-08-07T05:39:12.142Z,19.48
2023-08-07T05:41:13.918Z,19.48
2023-08-07T05:43:17.502Z,19.47
2023-08-07T05:45:19.198Z,19.47
2023-08-07T05:47:20.819Z,19.47
2023-08-07T05:49:24.801Z,19.47
2023-08-07T05:51:27.724Z,19.47
2023-08-07T05:53:29.337Z,19.47
2023-08-07T05:55:31.000Z,19.47
2023-08-07T05:57:32.721Z,19.46
2023-08-07T05:59:35.746Z,19.47
2023-08-07T06:01:38.144Z,19.47
2023-08-07T06:03:39.815Z,19.46
2023-08-07T06:05:41.524Z,19.46
2023-08-07T06:07:43.641Z,19.46
2023-08-07T06:09:45.431Z,19.46
2023-08-07T06:11:47.030Z,19.46
2023-08-07T06:13:49.904Z,19.44
2023-08-07T06:15:51.566Z,19.47
2023-08-07T06:17:53.487Z,19.47
2023-08-07T06:19:55.278Z,19.46
2023-08-07T06:21:57.553Z,19.46
2023-08-07T06:23:59.591Z,19.45
2023-08-07T06:26:05.070Z,19.39
2023-08-07T06:28:06.630Z,19.45
2023-08-07T06:30:08.676Z,19.46
2023-08-07T06:32:11.733Z,19.45
2023-08-07T06:34:13.617Z,19.45
2023-08-07T06:36:15.392Z,19.46
2023-08-07T06:38:17.017Z,19.45
2023-08-07T06:40:18.584Z,19.46
2023-08-07T06:42:20.139Z,19.45
2023-08-07T06:44:21.687Z,19.46
2023-08-07T06:46:27.740Z,19.45
2023-08-07T06:48:29.560Z,19.47
2023-08-07T06:50:31.219Z,19.46
2023-08-07T06:52:32.809Z,19.46
2023-08-07T06:54:34.974Z,19.47
2023-08-07T06:56:38.618Z,19.48
2023-08-07T06:58:40.302Z,19.48
2023-08-07T07:00:41.985Z,19.46
2023-08-07T07:02:43.682Z,19.48
2023-08-07T07:04:45.371Z,19.45
2023-08-07T07:06:47.021Z,19.49
2023-08-07T07:08:48.696Z,19.49
2023-08-07T07:10:50.270Z,19.48
2023-08-07T07:12:53.168Z,19.45
2023-08-07T07:14:54.813Z,19.48
2023-08-07T07:16:56.380Z,19.49
2023-08-07T07:18:59.335Z,19.47
2023-08-07T07:21:01.618Z,19.49
2023-08-07T07:23:03.410Z,19.47
2023-08-07T07:25:05.661Z,19.50
2023-08-07T07:27:07.614Z,19.50
2023-08-07T07:29:09.268Z,19.50
2023-08-07T07:31:12.698Z,19.52
2023-08-07T07:33:15.053Z,19.52
2023-08-07T07:35:16.955Z,19.53
2023-08-07T07:37:18.684Z,19.53
2023-08-07T07:39:20.327Z,19.45
2023-08-07T07:41:23.363Z,19.53
2023-08-07T07:43:24.964Z,19.53
2023-08-07T07:45:26.645Z,19.54
2023-08-07T07:47:28.278Z,19.53
2023-08-07T07:49:29.926Z,19.55
2023-08-07T07:51:32.870Z,19.56
2023-08-07T07:53:34.565Z,19.54
2023-08-07T07:55:36.242Z,19.58
2023-08-07T07:57:37.856Z,19.59
2023-08-07T07:59:39.432Z,19.60
2023-08-07T08:01:41.203Z,19.62
2023-08-07T08:03:44.703Z,19.64
2023-08-07T08:07:53.000Z,19.67
2023-08-07T08:09:54.608Z,19.67
2023-08-07T08:11:56.461Z,19.69
2023-08-07T08:13:58.250Z,19.70
2023-08-07T08:15:59.858Z,19.71
2023-08-07T08:18:01.632Z,19.71
2023-08-07T08:22:10.200Z,19.75
2023-08-07T08:24:12.003Z,19.75
2023-08-07T08:26:13.629Z,19.74
2023-08-07T08:28:15.221Z,19.77
2023-08-07T08:30:16.840Z,19.77
2023-08-07T08:32:18.399Z,19.77
2023-08-07T08:34:20.163Z,19.79
2023-08-07T08:36:21.909Z,19.76
2023-08-07T08:38:24.406Z,19.81
2023-08-07T08:40:26.155Z,19.83
2023-08-07T08:42:28.434Z,19.84
2023-08-07T08:44:31.137Z,19.85
2023-08-07T08:46:32.918Z,19.86
2023-08-07T08:48:37.084Z,19.86
2023-08-07T08:50:39.616Z,19.87
2023-08-07T08:52:46.213Z,19.88
2023-08-07T08:54:48.508Z,19.86
2023-08-07T08:56:50.703Z,19.89
2023-08-07T08:58:53.099Z,19.90
2023-08-07T09:00:54.867Z,19.84
2023-08-07T09:02:56.599Z,19.90
2023-08-07T09:04:58.290Z,19.89
2023-08-07T09:07:00.619Z,19.91
2023-08-07T09:09:02.637Z,19.90
2023-08-07T09:11:04.806Z,19.93
2023-08-07T09:13:11.062Z,19.91
2023-08-07T09:15:17.128Z,19.95
2023-08-07T09:17:19.064Z,19.96
2023-08-07T09:19:20.733Z,19.96
2023-08-07T09:21:22.554Z,19.96
2023-08-07T09:23:25.422Z,19.97
2023-08-07T09:25:34.698Z,19.97
2023-08-07T09:27:38.357Z,19.99
2023-08-07T09:29:44.178Z,20.00
2023-08-07T09:31:46.897Z,20.01
2023-08-07T09:33:52.322Z,20.01
2023-08-07T09:35:54.769Z,20.01
2023-08-07T09:37:57.854Z,19.99
2023-08-07T09:40:02.990Z,20.04
2023-08-07T09:42:05.442Z,20.04
2023-08-07T09:44:11.948Z,20.04
2023-08-07T09:46:13.695Z,20.06
2023-08-07T09:48:16.353Z,20.06
2023-08-07T09:50:20.518Z,20.06
2023-08-07T09:52:22.201Z,20.09
2023-08-07T09:54:23.765Z,20.08
2023-08-07T09:56:25.656Z,20.08
2023-08-07T09:58:27.560Z,20.09
2023-08-07T10:00:34.662Z,20.10
2023-08-07T10:02:36.361Z,20.10
2023-08-07T10:04:38.187Z,20.08
2023-08-07T10:06:39.870Z,20.10
2023-08-07T10:08:43.436Z,20.11
2023-08-07T10:10:45.353Z,20.10
2023-08-07T10:12:49.023Z,20.12
2023-08-07T10:14:51.710Z,20.13
2023-08-07T10:16:53.870Z,20.13
2023-08-07T10:18:56.115Z,20.14
2023-08-07T10:20:58.949Z,20.15
2023-08-07T10:23:10.503Z,20.15
2023-08-07T10:25:12.163Z,20.16
2023-08-07T10:27:14.661Z,20.13
2023-08-07T10:29:19.296Z,20.17
2023-08-07T10:31:22.294Z,20.18
2023-08-07T10:33:25.660Z,20.17
2023-08-07T10:35:36.051Z,20.20
2023-08-07T10:37:42.496Z,20.22
2023-08-07T10:40:09.423Z,20.23
2023-08-07T10:42:12.882Z,20.23
2023-08-07T10:44:22.377Z,20.26
2023-08-07T10:46:25.300Z,20.28
2023-08-07T10:48:27.698Z,20.28
2023-08-07T10:50:38.180Z,20.30
2023-08-07T10:52:40.723Z,20.30
2023-08-07T10:54:46.979Z,20.31
2023-08-07T10:56:53.745Z,20.31
2023-08-07T10:58:55.713Z,20.32
2023-08-07T11:01:16.167Z,20.33
2023-08-07T11:03:30.049Z,20.32
2023-08-07T11:05:31.960Z,20.30
2023-08-07T11:07:33.653Z,20.34
2023-08-07T11:09:35.896Z,20.34
2023-08-07T11:11:40.998Z,20.33
2023-08-07T11:13:42.852Z,20.32
2023-08-07T11:15:45.121Z,20.31
2023-08-07T11:17:47.449Z,20.30
2023-08-07T11:19:49.394Z,20.30
2023-08-07T11:21:51.974Z,20.27
2023-08-07T11:23:53.784Z,20.27
2023-08-07T11:25:56.143Z,20.31
2023-08-07T11:27:57.745Z,20.33
2023-08-07T11:29:59.780Z,20.31
2023-08-07T11:32:01.399Z,20.32
2023-08-07T11:34:04.068Z,20.35
2023-08-07T11:36:12.634Z,20.36
2023-08-07T11:38:18.939Z,20.38
2023-08-07T11:40:20.815Z,20.39
2023-08-07T11:42:22.824Z,20.41
2023-08-07T11:44:24.991Z,20.41
2023-08-07T11:46:27.262Z,20.41
2023-08-07T11:48:30.821Z,20.42
2023-08-07T11:50:33.114Z,20.39
2023-08-07T11:52:34.750Z,20.43
2023-08-07T11:54:36.573Z,20.41
2023-08-07T11:56:38.570Z,20.44
2023-08-07T11:58:41.818Z,20.45
2023-08-07T12:00:45.602Z,20.44
2023-08-07T12:02:47.726Z,20.46
2023-08-07T12:04:49.507Z,20.43
2023-08-07T12:06:56.429Z,20.47
2023-08-07T12:08:58.942Z,20.48
2023-08-07T12:11:03.166Z,20.48
2023-08-07T12:13:05.976Z,20.47
2023-08-07T12:15:11.225Z,20.48
2023-08-07T12:17:12.819Z,20.49
2023-08-07T12:19:16.096Z,20.50
2023-08-07T12:21:23.800Z,20.52
2023-08-07T12:23:25.933Z,20.52
2023-08-07T12:25:27.728Z,20.52
2023-08-07T12:27:29.520Z,20.53
2023-08-07T12:29:31.128Z,20.53
2023-08-07T12:31:32.762Z,20.53
2023-08-07T12:33:34.686Z,20.51
2023-08-07T12:35:36.633Z,20.54
2023-08-07T12:37:38.529Z,20.56
2023-08-07T12:41:45.585Z,20.57
2023-08-07T12:44:06.526Z,20.58
2023-08-07T12:48:12.870Z,20.59
2023-08-07T12:50:14.514Z,20.60
2023-08-07T12:52:16.142Z,20.65
2023-08-07T12:54:17.730Z,20.66
2023-08-07T12:56:19.321Z,20.65
2023-08-07T12:58:24.143Z,20.67
2023-08-07T13:00:26.864Z,20.68
2023-08-07T13:02:28.474Z,20.68
2023-08-07T13:04:30.385Z,20.70
2023-08-07T13:06:32.004Z,20.71
2023-08-07T13:08:34.639Z,20.71
2023-08-07T13:10:36.371Z,20.69
2023-08-07T13:12:39.908Z,20.73
2023-08-07T13:14:41.654Z,20.72
2023-08-07T13:16:43.525Z,20.76
2023-08-07T13:18:45.324Z,20.76
2023-08-07T13:20:48.256Z,20.77
2023-08-07T13:22:49.838Z,20.76
2023-08-07T13:24:51.554Z,20.77
2023-08-07T13:26:53.174Z,20.77
2023-08-07T13:28:54.826Z,20.76
2023-08-07T13:30:57.343Z,20.76
2023-08-07T13:32:59.097Z,20.73
2023-08-07T13:35:00.921Z,20.76
2023-08-07T13:37:02.545Z,20.74
2023-08-07T13:39:04.953Z,20.74
2023-08-07T13:41:06.577Z,20.75
2023-08-07T13:43:10.761Z,20.74
2023-08-07T13:45:14.568Z,20.74
2023-08-07T13:47:18.907Z,20.73
2023-08-07T13:49:21.722Z,20.72
2023-08-07T13:51:23.289Z,20.72
2023-08-07T13:53:30.035Z,20.73
2023-08-07T13:55:31.627Z,20.73
2023-08-07T13:57:34.324Z,20.74
2023-08-07T13:59:35.975Z,20.73
2023-08-07T14:01:37.713Z,20.71
2023-08-07T14:03:39.393Z,20.76
2023-08-07T14:05:41.123Z,20.76
2023-08-07T14:07:42.781Z,20.76
2023-08-07T14:09:44.383Z,20.76
2023-08-07T14:11:46.132Z,20.74
2023-08-07T14:13:48.407Z,20.74
2023-08-07T14:15:50.055Z,20.75
2023-08-07T14:17:53.398Z,20.75
2023-08-07T14:19:55.067Z,20.74
2023-08-07T14:21:56.753Z,20.75
2023-08-07T14:23:58.405Z,20.76
2023-08-07T14:26:00.194Z,20.73
2023-08-07T14:28:01.834Z,20.74
2023-08-07T14:30:03.906Z,20.77
2023-08-07T14:32:05.881Z,20.77
2023-08-07T14:34:08.626Z,20.79
2023-08-07T14:36:10.413Z,20.79
2023-08-07T14:38:12.045Z,20.80
2023-08-07T14:40:13.651Z,20.82
2023-08-07T14:42:15.254Z,20.82
2023-08-07T14:44:16.891Z,20.85
2023-08-07T14:46:19.759Z,20.84
2023-08-07T14:48:21.487Z,20.84
2023-08-07T14:50:23.106Z,20.84
2023-08-07T14:52:24.754Z,20.81
2023-08-07T14:54:26.456Z,20.82
2023-08-07T14:56:28.181Z,20.83
2023-08-07T14:58:30.380Z,20.84
2023-08-07T15:00:31.976Z,20.83
2023-08-07T15:02:33.773Z,20.83
2023-08-07T15:04:35.369Z,20.83
2023-08-07T15:06:37.124Z,20.73
2023-08-07T15:08:38.834Z,20.83
2023-08-07T15:10:41.214Z,20.82
2023-08-07T15:12:43.088Z,20.82
2023-08-07T15:14:44.650Z,20.80
2023-08-07T15:16:46.320Z,20.82
2023-08-07T15:18:48.273Z,20.83
2023-08-07T15:20:50.167Z,20.84
2023-08-07T15:22:51.888Z,20.85
2023-08-07T15:24:53.488Z,20.88
2023-08-07T15:26:55.154Z,20.91
2023-08-07T15:28:56.781Z,20.91
2023-08-07T15:30:58.575Z,20.91
2023-08-07T15:33:00.189Z,20.88
2023-08-07T15:35:01.797Z,20.93
2023-08-07T15:37:03.563Z,20.94
2023-08-07T15:39:05.334Z,20.95
2023-08-07T15:41:06.945Z,20.94
2023-08-07T15:43:10.909Z,20.93
2023-08-07T15:45:13.786Z,20.93
2023-08-07T15:47:17.402Z,20.93
2023-08-07T15:49:19.597Z,20.93
2023-08-07T15:51:21.223Z,20.93
2023-08-07T15:53:23.308Z,20.94
2023-08-07T15:55:25.124Z,20.94
2023-08-07T15:57:26.895Z,20.95
2023-08-07T15:59:29.109Z,20.96
2023-08-07T16:01:30.801Z,20.96
2023-08-07T16:03:32.667Z,20.97
2023-08-07T16:05:35.382Z,20.97
2023-08-07T16:07:37.031Z,20.97
2023-08-07T16:09:38.659Z,20.91
2023-08-07T16:11:40.219Z,20.98
2023-08-07T16:13:41.864Z,20.99
2023-08-07T16:15:43.734Z,21.00
2023-08-07T16:17:45.605Z,21.00
2023-08-07T16:19:47.349Z,21.01
2023-08-07T16:21:48.931Z,20.99
2023-08-07T16:23:50.613Z,21.00
2023-08-07T16:25:52.229Z,21.00
2023-08-07T16:27:54.435Z,21.00
2023-08-07T16:29:56.232Z,21.01
2023-08-07T16:31:57.964Z,20.99
2023-08-07T16:33:59.792Z,21.00
2023-08-07T16:36:01.826Z,20.98
2023-08-07T16:38:04.340Z,20.91
2023-08-07T16:40:07.558Z,20.97
2023-08-07T16:42:09.233Z,20.98
2023-08-07T16:44:10.836Z,20.97
2023-08-07T16:46:12.536Z,20.99
2023-08-07T16:48:14.150Z,20.96
2023-08-07T16:50:15.775Z,20.97
2023-08-07T16:52:18.375Z,20.96
2023-08-07T16:54:20.107Z,20.96
2023-08-07T16:56:21.795Z,20.89
2023-08-07T16:58:23.494Z,20.94
2023-08-07T17:00:25.072Z,20.95
2023-08-07T17:02:26.854Z,20.96
2023-08-07T17:04:30.878Z,20.95
2023-08-07T17:06:32.575Z,20.95
2023-08-07T17:08:35.361Z,20.94
2023-08-07T17:10:38.540Z,20.96
2023-08-07T17:12:41.643Z,20.96
2023-08-07T17:14:43.251Z,20.95
2023-08-07T17:16:44.953Z,20.94
2023-08-07T17:18:46.548Z,20.94
2023-08-07T17:20:48.207Z,20.94
2023-08-07T17:22:49.964Z,20.95
2023-08-07T17:24:51.584Z,20.96
2023-08-07T17:26:53.299Z,20.95
2023-08-07T17:28:58.113Z,20.93
2023-08-07T17:31:01.049Z,20.94
2023-08-07T17:33:02.865Z,20.96
2023-08-07T17:35:05.029Z,20.94
2023-08-07T17:37:06.773Z,20.96
2023-08-07T17:39:08.788Z,20.96
2023-08-07T17:41:10.740Z,20.95
2023-08-07T17:43:12.385Z,20.95
2023-08-07T17:45:16.016Z,20.94
2023-08-07T17:47:17.954Z,20.93
2023-08-07T17:49:19.517Z,20.94
2023-08-07T17:51:21.348Z,20.94
2023-08-07T17:53:23.026Z,20.94
2023-08-07T17:55:24.815Z,20.90
2023-08-07T17:57:26.910Z,20.93
2023-08-07T17:59:28.508Z,20.93
2023-08-07T18:01:30.949Z,20.92
2023-08-07T18:03:32.604Z,20.92
2023-08-07T18:05:35.558Z,20.91
2023-08-07T18:07:38.241Z,20.91
2023-08-07T18:09:39.852Z,20.91
2023-08-07T18:11:42.378Z,20.90
2023-08-07T18:13:44.158Z,20.89
2023-08-07T18:15:45.851Z,20.91
2023-08-07T18:17:47.509Z,20.90
2023-08-07T18:19:49.211Z,20.89
2023-08-07T18:21:50.841Z,20.88
2023-08-07T18:23:52.677Z,20.87
2023-08-07T18:25:54.468Z,20.86
2023-08-07T18:27:56.210Z,20.87
2023-08-07T18:29:57.989Z,20.87
2023-08-07T18:32:00.125Z,20.86
2023-08-07T18:34:02.213Z,20.85
2023-08-07T18:36:04.421Z,20.85
2023-08-07T18:38:06.049Z,20.84
2023-08-07T18:40:08.192Z,20.84
2023-08-07T18:42:09.827Z,20.85
2023-08-07T18:44:12.087Z,20.84
2023-08-07T18:46:14.797Z,20.82
2023-08-07T18:48:16.501Z,20.82
2023-08-07T18:50:18.786Z,20.82
2023-08-07T18:52:20.464Z,20.80
2023-08-07T18:54:22.168Z,20.80
2023-08-07T18:56:23.841Z,20.80
2023-08-07T18:58:25.548Z,20.80
2023-08-07T19:00:27.410Z,20.79
2023-08-07T19:02:29.221Z,20.77
2023-08-07T19:04:30.899Z,20.77
2023-08-07T19:06:33.768Z,20.76
2023-08-07T19:08:36.030Z,20.75
2023-08-07T19:10:37.661Z,20.74
2023-08-07T19:12:39.287Z,20.74
2023-08-07T19:14:40.874Z,20.73
2023-08-07T19:16:46.164Z,20.74
2023-08-07T19:18:48.725Z,20.72
2023-08-07T19:20:50.395Z,20.70
2023-08-07T19:22:52.029Z,20.71
2023-08-07T19:24:53.728Z,20.70
2023-08-07T19:26:55.366Z,20.69
2023-08-07T19:28:57.772Z,20.64
2023-08-07T19:31:05.699Z,20.69
2023-08-07T19:33:08.268Z,20.68
2023-08-07T19:35:10.809Z,20.68
2023-08-07T19:37:12.440Z,20.67
2023-08-07T19:39:14.619Z,20.64
2023-08-07T19:41:16.599Z,20.68
2023-08-07T19:43:18.367Z,20.66
2023-08-07T19:45:20.162Z,20.66
2023-08-07T19:47:34.103Z,20.65
2023-08-07T19:49:37.584Z,20.65
2023-08-07T19:51:39.276Z,20.64
2023-08-07T19:53:45.880Z,20.64
2023-08-07T19:55:57.708Z,20.63
2023-08-07T19:57:59.319Z,20.63
2023-08-07T20:00:07.012Z,20.63
2023-08-07T20:02:08.608Z,20.62
2023-08-07T20:04:11.822Z,20.63
2023-08-07T20:06:13.737Z,20.61
2023-08-07T20:08:15.454Z,20.61
2023-08-07T20:10:24.104Z,20.62
2023-08-07T20:12:25.779Z,20.60
2023-08-07T20:14:27.429Z,20.61
2023-08-07T20:16:32.456Z,20.62
2023-08-07T20:18:34.105Z,20.58
2023-08-07T20:20:36.284Z,20.61
2023-08-07T20:22:37.886Z,20.58
2023-08-07T20:24:39.720Z,20.61
2023-08-07T20:26:43.124Z,20.59
2023-08-07T20:28:44.831Z,20.61
2023-08-07T20:30:46.677Z,20.61
2023-08-07T20:32:49.379Z,20.61
2023-08-07T20:34:51.208Z,20.59
2023-08-07T20:36:52.767Z,20.60
2023-08-07T20:38:54.356Z,20.59
2023-08-07T20:40:55.929Z,20.59
2023-08-07T20:42:59.977Z,20.58
2023-08-07T20:45:01.662Z,20.58
2023-08-07T20:47:03.373Z,20.58
2023-08-07T20:49:05.031Z,20.57
2023-08-07T20:51:06.636Z,20.54
2023-08-07T20:53:08.598Z,20.57
2023-08-07T20:55:10.355Z,20.57
2023-08-07T20:57:11.928Z,20.57
2023-08-07T20:59:13.882Z,20.56
2023-08-07T21:01:15.672Z,20.56
2023-08-07T21:03:17.699Z,20.56
2023-08-07T21:05:19.585Z,20.55
2023-08-07T21:07:21.465Z,20.50
2023-08-07T21:09:23.103Z,20.56
2023-08-07T21:11:29.261Z,20.54
2023-08-07T21:13:31.070Z,20.54
2023-08-07T21:15:32.698Z,20.54
2023-08-07T21:17:34.351Z,20.54
2023-08-07T21:19:36.797Z,20.53
2023-08-07T21:21:38.458Z,20.53
2023-08-07T21:23:40.054Z,20.53
2023-08-07T21:25:41.733Z,20.50
2023-08-07T21:27:44.737Z,20.53
2023-08-07T21:29:46.356Z,20.51
2023-08-07T21:31:48.062Z,20.52
2023-08-07T21:33:49.716Z,20.51
2023-08-07T21:35:51.679Z,20.51
2023-08-07T21:37:53.908Z,20.51
2023-08-07T21:39:56.766Z,20.49
2023-08-07T21:41:58.490Z,20.51
2023-08-07T21:44:00.176Z,20.51
2023-08-07T21:46:01.883Z,20.48
2023-08-07T21:48:04.693Z,20.50
2023-08-07T21:50:07.469Z,20.50
2023-08-07T21:52:10.047Z,20.47
2023-08-07T21:54:11.688Z,20.48
2023-08-07T21:56:13.406Z,20.48
2023-08-07T21:58:15.091Z,20.49
2023-08-07T22:00:17.160Z,20.48
2023-08-07T22:02:18.888Z,20.47
2023-08-07T22:04:20.866Z,20.46
2023-08-07T22:06:22.493Z,20.40
2023-08-07T22:08:24.181Z,20.45
2023-08-07T22:10:25.938Z,20.46
2023-08-07T22:12:27.581Z,20.46
2023-08-07T22:14:29.173Z,20.37
2023-08-07T22:16:30.997Z,20.46
2023-08-07T22:18:32.732Z,20.45
2023-08-07T22:20:34.401Z,20.43
2023-08-07T22:22:36.060Z,20.44
2023-08-07T22:24:38.617Z,20.44
2023-08-07T22:28:46.840Z,20.43
2023-08-07T22:30:48.572Z,20.44
2023-08-07T22:32:51.445Z,20.44
2023-08-07T22:34:53.168Z,20.44
2023-08-07T22:36:55.383Z,20.43
2023-08-07T22:38:57.066Z,20.38
2023-08-07T22:40:58.698Z,20.42
2023-08-07T22:43:00.344Z,20.41
2023-08-07T22:45:02.058Z,20.42
2023-08-07T22:47:03.923Z,20.41
2023-08-07T22:49:05.599Z,20.39
2023-08-07T22:51:08.233Z,20.41
2023-08-07T22:53:09.769Z,20.40
2023-08-07T22:55:11.470Z,20.41
2023-08-07T22:57:13.028Z,20.41
2023-08-07T22:59:14.751Z,20.40
2023-08-07T23:01:16.470Z,20.37
2023-08-07T23:05:25.008Z,20.38
2023-08-07T23:07:26.746Z,20.39
2023-08-07T23:09:28.393Z,20.39
2023-08-07T23:11:30.134Z,20.38
2023-08-07T23:15:39.246Z,20.39
2023-08-07T23:17:41.019Z,20.38
2023-08-07T23:19:42.638Z,20.37
2023-08-07T23:21:44.383Z,20.38
2023-08-07T23:23:46.108Z,20.37
2023-08-07T23:25:47.803Z,20.36
2023-08-07T23:27:49.379Z,20.37
2023-08-07T23:31:57.728Z,20.34
2023-08-07T23:34:00.097Z,20.36
2023-08-07T23:36:02.291Z,20.36
2023-08-07T23:38:04.618Z,20.33
2023-08-07T23:40:07.783Z,20.33
2023-08-07T23:42:09.494Z,20.35
2023-08-07T23:44:11.113Z,20.35
2023-08-07T23:46:12.752Z,20.34
2023-08-07T23:48:14.377Z,20.35
2023-08-07T23:52:23.073Z,20.35
2023-08-07T23:54:24.661Z,20.34
2023-08-07T23:56:28.393Z,20.33
2023-08-07T23:58:29.978Z,20.34
